createdAt,value
2023-05-19T00:01:48.264Z,100847.56
2023-05-19T00:04:18.318Z,100842.16
2023-05-19T00:06:52.151Z,100860.72
2023-05-19T00:09:21.954Z,100870.53
2023-05-19T00:11:51.578Z,100864.97
2023-05-19T00:14:21.189Z,100865.84
2023-05-19T00:16:52.349Z,100868.88
2023-05-19T00:19:22.192Z,100864.16
2023-05-19T00:21:51.441Z,100854.34
2023-05-19T00:24:20.432Z,100856.19
2023-05-19T00:26:49.545Z,100861.44
2023-05-19T00:29:19.267Z,100861.75
2023-05-19T00:31:48.533Z,100865.84
2023-05-19T00:34:18.858Z,100856.72
2023-05-19T00:36:47.997Z,100862.50
2023-05-19T00:39:20.004Z,100858.78
2023-05-19T00:41:49.032Z,100882.00
2023-05-19T00:44:18.324Z,100886.91
2023-05-19T00:46:47.398Z,100894.00
2023-05-19T00:49:18.546Z,100889.94
2023-05-19T00:51:47.632Z,100883.50
2023-05-19T00:54:17.687Z,100891.66
2023-05-19T00:56:46.897Z,100887.09
2023-05-19T00:59:15.858Z,100892.69
2023-05-19T01:01:45.876Z,100893.00
2023-05-19T01:04:17.094Z,100890.66
2023-05-19T01:06:48.503Z,100892.84
2023-05-19T01:09:18.579Z,100903.34
2023-05-19T01:11:47.598Z,100898.44
2023-05-19T01:14:17.234Z,100893.34
2023-05-19T01:16:51.818Z,100902.81
2023-05-19T01:19:39.304Z,100871.16
2023-05-19T01:22:23.092Z,100904.00
2023-05-19T01:25:33.622Z,100909.59
2023-05-19T01:28:51.485Z,100908.91
2023-05-19T01:31:24.771Z,100906.75
2023-05-19T01:33:54.745Z,100904.16
2023-05-19T01:36:24.557Z,100908.19
2023-05-19T01:38:57.856Z,100906.81
2023-05-19T01:41:28.561Z,100899.72
2023-05-19T01:43:59.118Z,100898.88
2023-05-19T01:46:29.483Z,100910.91
2023-05-19T01:48:59.086Z,100923.63
2023-05-19T01:51:29.283Z,100905.31
2023-05-19T01:53:58.280Z,100911.91
2023-05-19T01:56:39.504Z,100917.00
2023-05-19T01:59:23.245Z,100927.16
2023-05-19T02:01:58.549Z,100927.81
2023-05-19T02:04:40.098Z,100922.41
2023-05-19T02:07:15.859Z,100920.53
2023-05-19T02:09:52.720Z,100924.06
2023-05-19T02:12:27.559Z,100923.38
2023-05-19T02:15:04.868Z,100899.69
2023-05-19T02:17:38.107Z,100926.25
2023-05-19T02:20:08.952Z,100918.13
2023-05-19T02:22:39.008Z,100929.47
2023-05-19T02:25:09.740Z,100911.81
2023-05-19T02:27:40.086Z,100918.78
2023-05-19T02:30:10.616Z,100886.44
2023-05-19T02:32:41.185Z,100923.56
2023-05-19T02:35:11.730Z,100923.03
2023-05-19T02:37:41.864Z,100920.28
2023-05-19T02:40:11.377Z,100924.66
2023-05-19T02:42:40.523Z,100919.31
2023-05-19T02:45:10.230Z,100922.03
2023-05-19T02:47:41.581Z,100928.47
2023-05-19T02:50:11.050Z,100936.88
2023-05-19T02:52:39.971Z,100935.19
2023-05-19T02:55:09.838Z,100920.50
2023-05-19T02:57:38.764Z,100941.34
2023-05-19T03:00:09.481Z,100947.78
2023-05-19T03:02:38.678Z,100954.22
2023-05-19T03:05:10.397Z,100935.25
2023-05-19T03:07:39.306Z,100894.59
2023-05-19T03:10:09.913Z,100956.94
2023-05-19T03:12:38.992Z,100951.84
2023-05-19T03:15:09.134Z,100961.66
2023-05-19T03:17:38.113Z,100958.31
2023-05-19T03:20:10.904Z,100957.94
2023-05-19T03:22:39.850Z,100951.31
2023-05-19T03:25:09.383Z,100923.38
2023-05-19T03:27:38.384Z,100965.75
2023-05-19T03:30:10.838Z,100967.06
2023-05-19T03:32:55.533Z,100967.44
2023-05-19T03:35:25.852Z,100971.63
2023-05-19T03:37:55.021Z,100936.81
2023-05-19T03:40:24.095Z,100973.63
2023-05-19T03:42:58.688Z,100977.91
2023-05-19T03:45:27.754Z,100963.66
2023-05-19T03:47:57.197Z,100979.97
2023-05-19T03:50:50.572Z,100973.19
2023-05-19T03:53:25.211Z,100965.41
2023-05-19T03:55:56.764Z,100958.59
2023-05-19T03:58:26.954Z,100954.53
2023-05-19T04:01:08.612Z,100973.16
2023-05-19T04:03:38.175Z,100981.66
2023-05-19T04:06:09.044Z,100984.25
2023-05-19T04:08:37.999Z,100972.88
2023-05-19T04:11:06.978Z,100987.00
2023-05-19T04:13:36.386Z,100995.44
2023-05-19T04:16:06.168Z,100998.94
2023-05-19T04:18:35.269Z,100978.25
2023-05-19T04:21:04.509Z,100968.78
2023-05-19T04:23:35.989Z,100999.66
2023-05-19T04:26:06.792Z,101005.88
2023-05-19T04:28:39.008Z,100998.06
2023-05-19T04:31:10.991Z,101001.97
2023-05-19T04:33:40.808Z,101010.44
2023-05-19T04:36:11.537Z,100980.59
2023-05-19T04:38:46.761Z,101008.78
2023-05-19T04:41:16.578Z,101004.38
2023-05-19T04:43:48.449Z,101007.78
2023-05-19T04:46:17.868Z,100990.44
2023-05-19T04:48:47.867Z,100998.91
2023-05-19T04:51:17.784Z,101008.72
2023-05-19T04:53:49.238Z,100999.16
2023-05-19T04:56:18.232Z,101009.13
2023-05-19T04:58:47.497Z,100968.97
2023-05-19T05:01:17.006Z,101024.56
2023-05-19T05:03:46.111Z,101004.03
2023-05-19T05:06:15.252Z,101018.28
2023-05-19T05:08:44.186Z,101016.59
2023-05-19T05:11:15.634Z,101014.94
2023-05-19T05:13:45.350Z,101024.56
2023-05-19T05:16:16.829Z,101022.72
2023-05-19T05:18:47.007Z,101020.84
2023-05-19T05:21:16.776Z,101032.22
2023-05-19T05:23:46.367Z,101039.09
2023-05-19T05:26:19.850Z,101034.56
2023-05-19T05:28:51.287Z,101035.38
2023-05-19T05:31:21.395Z,101042.63
2023-05-19T05:33:50.736Z,101038.97
2023-05-19T05:36:23.212Z,101046.78
2023-05-19T05:38:52.179Z,101045.25
2023-05-19T05:41:22.941Z,101052.19
2023-05-19T05:43:54.257Z,101061.34
2023-05-19T05:46:23.417Z,101059.63
2023-05-19T05:48:53.212Z,101066.25
2023-05-19T05:51:23.712Z,101063.03
2023-05-19T05:53:54.217Z,101048.47
2023-05-19T05:56:29.753Z,101069.47
2023-05-19T05:58:58.936Z,101067.75
2023-05-19T06:01:28.255Z,101058.94
2023-05-19T06:03:59.523Z,101078.63
2023-05-19T06:06:31.390Z,101074.91
2023-05-19T06:09:01.927Z,101073.91
2023-05-19T06:11:33.488Z,101066.06
2023-05-19T06:14:05.902Z,101052.34
2023-05-19T06:16:56.881Z,101071.84
2023-05-19T06:19:37.024Z,101054.88
2023-05-19T06:22:12.193Z,101068.13
2023-05-19T06:24:41.697Z,101064.56
2023-05-19T06:27:13.351Z,101073.72
2023-05-19T06:29:42.287Z,101073.34
2023-05-19T06:32:11.685Z,101082.66
2023-05-19T06:34:42.283Z,101060.66
2023-05-19T06:37:11.932Z,101078.72
2023-05-19T06:39:41.409Z,101079.34
2023-05-19T06:42:10.765Z,101044.06
2023-05-19T06:45:01.110Z,101089.06
2023-05-19T06:47:31.090Z,101088.31
2023-05-19T06:50:00.616Z,101070.59
2023-05-19T06:52:33.999Z,101087.66
2023-05-19T06:55:04.107Z,101063.63
2023-05-19T06:57:34.284Z,101081.97
2023-05-19T07:00:07.018Z,101093.88
2023-05-19T07:02:36.526Z,101048.69
2023-05-19T07:05:11.249Z,101100.16
2023-05-19T07:07:40.295Z,101103.97
2023-05-19T07:10:15.173Z,101095.81
2023-05-19T07:12:44.889Z,101093.03
2023-05-19T07:15:16.032Z,101088.59
2023-05-19T07:17:46.521Z,101103.81
2023-05-19T07:20:15.713Z,101099.94
2023-05-19T07:22:44.695Z,101105.66
2023-05-19T07:25:14.240Z,101103.91
2023-05-19T07:27:43.333Z,101095.06
2023-05-19T07:30:13.511Z,101113.66
2023-05-19T07:32:44.982Z,101083.34
2023-05-19T07:35:18.985Z,101104.63
2023-05-19T07:37:48.388Z,101111.50
2023-05-19T07:40:17.824Z,101109.06
2023-05-19T07:42:46.824Z,101100.44
2023-05-19T07:45:16.991Z,101091.09
2023-05-19T07:47:47.621Z,101090.16
2023-05-19T07:50:17.063Z,101106.34
2023-05-19T07:52:46.242Z,101105.25
2023-05-19T07:55:15.324Z,101104.31
2023-05-19T07:57:46.768Z,101113.56
2023-05-19T08:00:17.047Z,101106.38
2023-05-19T08:02:50.151Z,101093.28
2023-05-19T08:05:19.563Z,101108.63
2023-05-19T08:07:48.833Z,101102.00
2023-05-19T08:10:18.070Z,101101.50
2023-05-19T08:12:47.661Z,101102.56
2023-05-19T08:15:16.916Z,101095.75
2023-05-19T08:17:47.550Z,101088.41
2023-05-19T08:20:17.198Z,101103.81
2023-05-19T08:22:47.092Z,101095.69
2023-05-19T08:25:16.202Z,101107.22
2023-05-19T08:27:45.071Z,101115.53
2023-05-19T08:30:14.546Z,101112.81
2023-05-19T08:32:43.744Z,101113.09
2023-05-19T08:35:14.284Z,101118.13
2023-05-19T08:37:43.513Z,101124.34
2023-05-19T08:40:19.370Z,101127.66
2023-05-19T08:42:50.283Z,101134.53
2023-05-19T08:45:19.551Z,101134.81
2023-05-19T08:47:48.814Z,101104.47
2023-05-19T08:50:24.972Z,101125.97
2023-05-19T08:52:58.013Z,101131.97
2023-05-19T08:55:34.007Z,101114.31
2023-05-19T08:58:05.331Z,101130.53
2023-05-19T09:00:35.286Z,101123.44
2023-05-19T09:03:17.428Z,101103.53
2023-05-19T09:05:53.874Z,101121.38
2023-05-19T09:08:23.239Z,101134.53
2023-05-19T09:10:52.171Z,101131.06
2023-05-19T09:13:21.082Z,101128.97
2023-05-19T09:15:51.643Z,101126.28
2023-05-19T09:18:21.141Z,101132.84
2023-05-19T09:20:50.248Z,101126.56
2023-05-19T09:23:21.175Z,101124.88
2023-05-19T09:25:51.032Z,101117.97
2023-05-19T09:28:28.120Z,101113.06
2023-05-19T09:31:04.211Z,101117.44
2023-05-19T09:33:35.622Z,101120.28
2023-05-19T09:36:06.256Z,101100.78
2023-05-19T09:38:40.057Z,101095.00
2023-05-19T09:41:09.920Z,101119.19
2023-05-19T09:43:39.047Z,101102.53
2023-05-19T09:46:11.240Z,101106.53
2023-05-19T09:48:42.734Z,101098.31
2023-05-19T09:51:11.788Z,101110.94
2023-05-19T09:53:44.929Z,101106.94
2023-05-19T09:56:16.334Z,101097.69
2023-05-19T09:58:45.469Z,101119.34
2023-05-19T10:01:15.158Z,101112.69
2023-05-19T10:03:45.654Z,101104.44
2023-05-19T10:06:16.780Z,101096.78
2023-05-19T10:08:49.419Z,101116.81
2023-05-19T10:11:19.290Z,101099.09
2023-05-19T10:13:52.094Z,101097.06
2023-05-19T10:16:23.285Z,101109.59
2023-05-19T10:18:54.424Z,101110.28
2023-05-19T10:21:23.750Z,101098.94
2023-05-19T10:23:54.443Z,101115.72
2023-05-19T10:26:24.816Z,101108.28
2023-05-19T10:28:54.215Z,101111.81
2023-05-19T10:31:25.834Z,101112.59
2023-05-19T10:34:09.708Z,101106.44
2023-05-19T10:36:47.800Z,101091.31
2023-05-19T10:39:27.933Z,101110.09
2023-05-19T10:42:09.007Z,101103.38
2023-05-19T10:44:54.530Z,101099.50
2023-05-19T10:47:26.415Z,101082.97
2023-05-19T10:49:55.907Z,101105.53
2023-05-19T10:52:29.740Z,101101.44
2023-05-19T10:55:00.175Z,101108.00
2023-05-19T10:57:31.992Z,101123.16
2023-05-19T11:00:01.551Z,101116.25
2023-05-19T11:02:41.944Z,101115.94
2023-05-19T11:05:13.016Z,101118.91
2023-05-19T11:07:46.059Z,101128.50
2023-05-19T11:10:24.364Z,101115.22
2023-05-19T11:12:53.844Z,101116.91
2023-05-19T11:15:27.583Z,101083.59
2023-05-19T11:17:57.205Z,101122.41
2023-05-19T11:20:27.704Z,101124.63
2023-05-19T11:23:07.472Z,101126.16
2023-05-19T11:25:45.630Z,101127.38
2023-05-19T11:28:17.409Z,101116.31
2023-05-19T11:30:50.459Z,101128.72
2023-05-19T11:33:20.689Z,101134.66
2023-05-19T11:35:51.263Z,101133.53
2023-05-19T11:38:20.937Z,101130.25
2023-05-19T11:40:54.501Z,101088.75
2023-05-19T11:43:27.794Z,101133.13
2023-05-19T11:45:57.359Z,101139.06
2023-05-19T11:48:27.852Z,101141.66
2023-05-19T11:50:57.039Z,101143.28
2023-05-19T11:53:26.169Z,101132.09
2023-05-19T11:55:56.653Z,101111.09
2023-05-19T11:58:29.835Z,101102.88
2023-05-19T12:00:59.228Z,101116.03
2023-05-19T12:03:29.788Z,101131.16
2023-05-19T12:05:59.201Z,101142.66
2023-05-19T12:08:28.357Z,101143.84
2023-05-19T12:10:58.988Z,101146.13
2023-05-19T12:13:34.511Z,101123.66
2023-05-19T12:16:06.954Z,101145.28
2023-05-19T12:18:38.704Z,101141.63
2023-05-19T12:21:08.053Z,101118.53
2023-05-19T12:23:37.158Z,101126.53
2023-05-19T12:26:07.581Z,101114.31
2023-05-19T12:28:37.410Z,101144.97
2023-05-19T12:31:07.106Z,101141.34
2023-05-19T12:33:36.157Z,101120.59
2023-05-19T12:36:09.138Z,101130.34
2023-05-19T12:38:39.776Z,101116.81
2023-05-19T12:41:12.622Z,101135.91
2023-05-19T12:43:42.472Z,101134.31
2023-05-19T12:46:15.462Z,101131.06
2023-05-19T12:48:45.171Z,101135.00
2023-05-19T12:51:18.942Z,101129.78
2023-05-19T12:53:48.517Z,101141.03
2023-05-19T12:56:19.008Z,101142.53
2023-05-19T12:58:54.532Z,101137.94
2023-05-19T13:01:24.426Z,101123.50
2023-05-19T13:03:53.990Z,101127.56
2023-05-19T13:06:26.103Z,101103.16
2023-05-19T13:08:54.991Z,101128.47
2023-05-19T13:11:25.255Z,101112.97
2023-05-19T13:13:54.242Z,101108.25
2023-05-19T13:16:24.028Z,101112.72
2023-05-19T13:18:53.589Z,101126.06
2023-05-19T13:21:22.613Z,101126.81
2023-05-19T13:23:52.459Z,101114.53
2023-05-19T13:26:21.610Z,101129.44
2023-05-19T13:28:51.991Z,101120.00
2023-05-19T13:31:21.203Z,101105.81
2023-05-19T13:33:50.369Z,101032.47
2023-05-19T13:36:19.372Z,101109.72
2023-05-19T13:38:50.665Z,101108.69
2023-05-19T13:41:25.154Z,101102.00
2023-05-19T13:43:55.638Z,101109.63
2023-05-19T13:46:36.368Z,101091.56
2023-05-19T13:49:13.363Z,101100.66
2023-05-19T13:51:45.016Z,101085.31
2023-05-19T13:54:13.957Z,101096.97
2023-05-19T13:56:48.697Z,101100.84
2023-05-19T13:59:19.014Z,101090.91
2023-05-19T14:01:48.254Z,101097.22
2023-05-19T14:04:18.980Z,101096.31
2023-05-19T14:06:48.471Z,101084.28
2023-05-19T14:09:17.550Z,101097.88
2023-05-19T14:11:46.856Z,101092.31
2023-05-19T14:14:16.543Z,101097.91
2023-05-19T14:16:47.140Z,101079.88
2023-05-19T14:19:18.654Z,101097.47
2023-05-19T14:21:47.498Z,101086.81
2023-05-19T14:24:17.175Z,101099.56
2023-05-19T14:26:46.625Z,101097.84
2023-05-19T14:29:19.991Z,101108.66
2023-05-19T14:31:50.608Z,101085.97
2023-05-19T14:34:21.222Z,101082.22
2023-05-19T14:36:50.252Z,101095.38
2023-05-19T14:39:19.631Z,101101.38
2023-05-19T14:41:51.305Z,101093.22
2023-05-19T14:44:22.952Z,101067.00
2023-05-19T14:46:54.544Z,101104.50
2023-05-19T14:49:23.819Z,101091.53
2023-05-19T14:51:53.161Z,101090.59
2023-05-19T14:54:22.307Z,101096.75
2023-05-19T14:56:51.867Z,101099.84
2023-05-19T14:59:21.760Z,101097.94
2023-05-19T15:01:50.930Z,101104.34
2023-05-19T15:04:21.548Z,101099.25
2023-05-19T15:07:05.941Z,101104.94
2023-05-19T15:09:38.613Z,101101.09
2023-05-19T15:12:08.832Z,101098.06
2023-05-19T15:14:37.872Z,101098.91
2023-05-19T15:17:07.037Z,101097.78
2023-05-19T15:19:41.083Z,101096.66
2023-05-19T15:22:10.311Z,101097.78
2023-05-19T15:24:39.277Z,101096.25
2023-05-19T15:27:09.203Z,101104.78
2023-05-19T15:29:38.886Z,101092.31
2023-05-19T15:32:09.785Z,101088.19
2023-05-19T15:34:43.273Z,101099.78
2023-05-19T15:37:12.361Z,101099.47
2023-05-19T15:39:41.858Z,101090.06
2023-05-19T15:42:11.441Z,101096.84
2023-05-19T15:44:40.477Z,101096.72
2023-05-19T15:47:09.807Z,101100.03
2023-05-19T15:49:39.243Z,101092.09
2023-05-19T15:52:09.816Z,101090.22
2023-05-19T15:54:38.735Z,101088.47
2023-05-19T15:57:07.763Z,101088.22
2023-05-19T15:59:36.833Z,101073.81
2023-05-19T16:02:06.346Z,101072.03
2023-05-19T16:04:35.815Z,101079.47
2023-05-19T16:07:05.746Z,101069.03
2023-05-19T16:09:36.120Z,101078.16
2023-05-19T16:12:05.985Z,101084.19
2023-05-19T16:14:40.340Z,101082.63
2023-05-19T16:17:11.799Z,101091.03
2023-05-19T16:19:40.778Z,101099.41
2023-05-19T16:22:09.803Z,101098.41
2023-05-19T16:24:43.016Z,101088.28
2023-05-19T16:27:14.268Z,101081.56
2023-05-19T16:29:43.521Z,101098.91
2023-05-19T16:32:12.947Z,101095.34
2023-05-19T16:34:42.434Z,101106.00
2023-05-19T16:37:14.347Z,101100.47
2023-05-19T16:39:45.152Z,101111.50
2023-05-19T16:42:14.370Z,101082.03
2023-05-19T16:44:43.553Z,101093.19
2023-05-19T16:47:12.640Z,101056.63
2023-05-19T16:49:41.855Z,101109.84
2023-05-19T16:52:13.483Z,101088.13
2023-05-19T16:55:57.282Z,101127.28
2023-05-19T16:57:39.913Z,101095.38
2023-05-19T17:00:10.463Z,101131.38
2023-05-19T17:02:39.908Z,101130.34
2023-05-19T17:05:09.907Z,101123.56
2023-05-19T17:07:39.212Z,101127.44
2023-05-19T17:10:10.980Z,101125.44
2023-05-19T17:12:40.013Z,101115.91
2023-05-19T17:15:09.801Z,101114.84
2023-05-19T17:17:40.239Z,101127.00
2023-05-19T17:20:10.618Z,101121.47
2023-05-19T17:22:39.805Z,101131.47
2023-05-19T17:25:11.346Z,101136.13
2023-05-19T17:27:40.657Z,101137.00
2023-05-19T17:30:14.460Z,101078.47
2023-05-19T17:32:43.678Z,101139.91
2023-05-19T17:35:13.026Z,101149.66
2023-05-19T17:37:42.072Z,101140.81
2023-05-19T17:40:13.678Z,101149.88
2023-05-19T17:42:42.692Z,101123.53
2023-05-19T17:45:13.079Z,101151.16
2023-05-19T17:47:45.287Z,101155.44
2023-05-19T17:50:15.155Z,101138.47
2023-05-19T17:52:44.974Z,101109.41
2023-05-19T17:55:16.501Z,101117.03
2023-05-19T17:57:47.356Z,101164.34
2023-05-19T18:00:17.069Z,101164.06
2023-05-19T18:02:46.829Z,101165.53
2023-05-19T18:05:17.296Z,101171.81
2023-05-19T18:07:46.966Z,101177.53
2023-05-19T18:10:18.430Z,101177.22
2023-05-19T18:12:47.426Z,101125.41
2023-05-19T18:15:16.918Z,101176.19
2023-05-19T18:17:46.446Z,101172.47
2023-05-19T18:20:17.298Z,101179.19
2023-05-19T18:22:47.069Z,101178.31
2023-05-19T18:25:18.635Z,101184.03
2023-05-19T18:27:47.746Z,101177.56
2023-05-19T18:30:16.807Z,101160.72
2023-05-19T18:32:45.936Z,101192.25
2023-05-19T18:35:15.303Z,101174.66
2023-05-19T18:37:44.319Z,101172.56
2023-05-19T18:40:13.437Z,101191.25
2023-05-19T18:42:44.192Z,101179.25
2023-05-19T18:45:13.907Z,101150.31
2023-05-19T18:47:43.322Z,101181.25
2023-05-19T18:50:13.229Z,101160.56
2023-05-19T18:52:42.270Z,101163.97
2023-05-19T18:55:11.640Z,101185.72
2023-05-19T18:57:41.968Z,101189.53
2023-05-19T19:00:14.789Z,101179.78
2023-05-19T19:02:44.198Z,101189.75
2023-05-19T19:05:13.988Z,101174.78
2023-05-19T19:07:44.753Z,101185.91
2023-05-19T19:10:15.242Z,101187.91
2023-05-19T19:12:44.421Z,101188.81
2023-05-19T19:15:15.472Z,101167.72
2023-05-19T19:17:45.778Z,101174.75
2023-05-19T19:20:15.222Z,101141.88
2023-05-19T19:22:44.549Z,101179.00
2023-05-19T19:25:13.692Z,101184.13
2023-05-19T19:27:42.792Z,101185.13
2023-05-19T19:30:17.356Z,101189.44
2023-05-19T19:32:51.816Z,101191.91
2023-05-19T19:35:23.288Z,101185.59
2023-05-19T19:37:52.961Z,101169.81
2023-05-19T19:40:22.060Z,101139.56
2023-05-19T19:42:51.144Z,101192.53
2023-05-19T19:45:22.101Z,101191.44
2023-05-19T19:47:51.913Z,101193.47
2023-05-19T19:50:21.215Z,101196.09
2023-05-19T19:52:52.903Z,101182.50
2023-05-19T19:55:22.176Z,101198.09
2023-05-19T19:57:51.403Z,101193.31
2023-05-19T20:00:24.801Z,101207.81
2023-05-19T20:03:03.674Z,101181.53
2023-05-19T20:05:33.976Z,101206.41
2023-05-19T20:08:05.756Z,101167.63
2023-05-19T20:10:35.159Z,101199.38
2023-05-19T20:13:07.810Z,101207.50
2023-05-19T20:15:38.313Z,101199.53
2023-05-19T20:18:07.363Z,101182.44
2023-05-19T20:20:37.110Z,101198.97
2023-05-19T20:23:07.737Z,101203.75
2023-05-19T20:25:53.726Z,101203.38
2023-05-19T20:28:28.165Z,101211.03
2023-05-19T20:30:59.134Z,101211.75
2023-05-19T20:33:28.329Z,101209.53
2023-05-19T20:35:58.164Z,101196.19
2023-05-19T20:38:27.340Z,101212.66
2023-05-19T20:40:59.600Z,101204.72
2023-05-19T20:43:32.048Z,101203.44
2023-05-19T20:46:03.886Z,101206.88
2023-05-19T20:48:33.227Z,101204.75
2023-05-19T20:51:02.784Z,101212.66
2023-05-19T20:53:31.816Z,101221.22
2023-05-19T20:56:05.265Z,101203.91
2023-05-19T20:58:34.151Z,101219.66
2023-05-19T21:01:04.668Z,101203.09
2023-05-19T21:03:33.813Z,101212.75
2023-05-19T21:06:03.270Z,101213.91
2023-05-19T21:08:32.496Z,101218.47
2023-05-19T21:11:01.790Z,101215.31
2023-05-19T21:13:31.774Z,101209.94
2023-05-19T21:16:00.900Z,101222.38
2023-05-19T21:18:31.400Z,101218.59
2023-05-19T21:21:03.737Z,101225.69
2023-05-19T21:23:32.961Z,101226.69
2023-05-19T21:26:02.148Z,101214.25
2023-05-19T21:28:31.410Z,101215.38
2023-05-19T21:31:05.483Z,101219.06
2023-05-19T21:33:36.059Z,101217.31
2023-05-19T21:36:15.716Z,101216.22
2023-05-19T21:38:47.561Z,101229.56
2023-05-19T21:41:16.677Z,101230.69
2023-05-19T21:43:47.909Z,101231.38
2023-05-19T21:46:16.977Z,101235.03
2023-05-19T21:48:47.397Z,101223.28
2023-05-19T21:51:16.659Z,101224.03
2023-05-19T21:53:46.146Z,101222.44
2023-05-19T21:56:16.427Z,101192.63
2023-05-19T21:58:45.555Z,101234.59
2023-05-19T22:01:14.729Z,101236.88
2023-05-19T22:03:43.705Z,101201.84
2023-05-19T22:06:14.223Z,101231.25
2023-05-19T22:08:46.052Z,101232.56
2023-05-19T22:11:18.041Z,101235.38
2023-05-19T22:13:48.833Z,101244.09
2023-05-19T22:16:17.847Z,101223.31
2023-05-19T22:18:58.214Z,101224.69
2023-05-19T22:21:29.278Z,101224.09
2023-05-19T22:23:58.407Z,101239.91
2023-05-19T22:26:27.448Z,101237.19
2023-05-19T22:28:56.816Z,101245.41
2023-05-19T22:31:25.936Z,101220.56
2023-05-19T22:33:55.335Z,101234.31
2023-05-19T22:36:24.828Z,101240.91
2023-05-19T22:38:55.245Z,101231.56
2023-05-19T22:41:24.238Z,101233.25
2023-05-19T22:43:53.169Z,101226.03
2023-05-19T22:46:22.233Z,101242.53
2023-05-19T22:48:51.254Z,101242.97
2023-05-19T22:51:20.343Z,101247.81
2023-05-19T22:53:49.593Z,101240.13
2023-05-19T22:56:19.921Z,101234.88
2023-05-19T22:58:48.935Z,101240.13
2023-05-19T23:01:18.913Z,101229.91
2023-05-19T23:03:48.229Z,101232.34
2023-05-19T23:06:17.378Z,101226.03
2023-05-19T23:08:48.474Z,101229.31
2023-05-19T23:11:17.420Z,101248.31
2023-05-19T23:13:47.758Z,101230.47
2023-05-19T23:16:16.846Z,101249.47
2023-05-19T23:18:46.400Z,101241.66
2023-05-19T23:21:15.336Z,101244.66
2023-05-19T23:23:44.399Z,101245.22
2023-05-19T23:26:14.360Z,101242.91
2023-05-19T23:28:45.355Z,101226.47
2023-05-19T23:31:15.762Z,101247.03
2023-05-19T23:33:44.906Z,101240.41
2023-05-19T23:36:14.689Z,101241.69
2023-05-19T23:38:43.816Z,101240.81
2023-05-19T23:41:13.011Z,101240.63
2023-05-19T23:43:42.051Z,101215.53
2023-05-19T23:46:11.326Z,101244.88
2023-05-19T23:48:44.059Z,101249.97
2023-05-19T23:51:13.344Z,101243.75
2023-05-19T23:53:43.230Z,101238.50
2023-05-19T23:56:12.521Z,101230.28
2023-05-19T23:58:41.428Z,101234.09
